Time;durP1;ratioP1;P1;durP2;ratioP2;P2;SDS_P1;SDS_P2;PMS_P1;PMS_P2;Temp;Humidity;BMP_temperature;BMP_pressure;BME280_temperature;BME280_humidity;BME280_pressure;Samples;Min_cycle;Max_cycle;Signal;HPM_P1;HPM_P2
2023/11/03 00:01:14;;;;;;;1.57;1.00;;;11.70;98.20;;;;;;4976199;28;20566;-82
2023/11/03 00:03:41;;;;;;;1.53;1.10;;;11.70;98.20;;;;;;4996414;28;20547;-83
2023/11/03 00:06:09;;;;;;;1.50;1.10;;;11.70;98.20;;;;;;4983583;28;20529;-81
2023/11/03 00:08:36;;;;;;;1.53;1.10;;;11.70;98.20;;;;;;4999924;28;20978;-83
2023/11/03 00:11:04;;;;;;;1.50;1.00;;;11.70;98.20;;;;;;4982461;28;20481;-83
2023/11/03 00:13:32;;;;;;;1.60;1.20;;;11.60;98.20;;;;;;4995262;28;20552;-81
2023/11/03 00:16:02;;;;;;;1.50;1.07;;;11.60;98.20;;;;;;4976958;28;21108;-81
2023/11/03 00:18:29;;;;;;;1.57;1.00;;;11.60;98.20;;;;;;4994014;28;20466;-83
2023/11/03 00:20:56;;;;;;;1.50;1.10;;;11.60;98.20;;;;;;4979974;28;20470;-82
2023/11/03 00:23:23;;;;;;;1.50;1.10;;;11.60;98.20;;;;;;4997776;28;20489;-84
2023/11/03 00:25:51;;;;;;;1.50;1.00;;;11.60;98.20;;;;;;4977994;28;21012;-82
2023/11/03 00:28:18;;;;;;;1.50;1.00;;;11.60;98.20;;;;;;5000897;28;21115;-82
2023/11/03 00:30:46;;;;;;;1.50;1.00;;;11.60;98.20;;;;;;4986063;28;20468;-83
2023/11/03 00:33:17;;;;;;;1.50;1.00;;;11.60;98.20;;;;;;4982587;28;20508;-82
2023/11/03 00:35:44;;;;;;;1.50;1.10;;;11.50;98.20;;;;;;4988359;28;20943;-81
2023/11/03 00:38:13;;;;;;;1.50;1.10;;;11.60;98.20;;;;;;4985559;28;20554;-84
2023/11/03 00:40:39;;;;;;;1.50;1.10;;;11.50;98.20;;;;;;4985581;28;20462;-82
2023/11/03 00:43:06;;;;;;;1.50;1.00;;;11.60;98.20;;;;;;4994671;28;20902;-83
2023/11/03 00:45:33;;;;;;;1.50;1.00;;;11.50;98.20;;;;;;4985174;28;20530;-83
2023/11/03 00:48:00;;;;;;;1.50;1.10;;;11.50;98.20;;;;;;5001223;28;20575;-83
2023/11/03 00:50:28;;;;;;;1.50;1.00;;;11.50;98.20;;;;;;4988427;28;20580;-82
2023/11/03 00:52:55;;;;;;;1.50;1.00;;;11.50;98.20;;;;;;4995668;28;20484;-81
2023/11/03 00:55:23;;;;;;;1.50;1.00;;;11.50;98.20;;;;;;4982768;28;20465;-82
2023/11/03 00:57:50;;;;;;;5.63;3.43;;;11.50;98.20;;;;;;4991103;28;20553;-83
2023/11/03 01:00:17;;;;;;;1.57;1.10;;;11.50;98.20;;;;;;4984291;28;20470;-82
2023/11/03 01:02:44;;;;;;;1.57;1.10;;;11.50;98.20;;;;;;4999853;28;20492;-83
2023/11/03 01:05:11;;;;;;;1.50;1.00;;;11.50;98.20;;;;;;4990113;28;20515;-82
2023/11/03 01:07:40;;;;;;;1.70;1.47;;;11.40;98.20;;;;;;4990685;28;20548;-81
2023/11/03 01:10:08;;;;;;;1.50;1.10;;;11.40;98.20;;;;;;4988670;28;20482;-82
2023/11/03 01:12:35;;;;;;;1.50;1.10;;;11.40;98.20;;;;;;4995549;28;20475;-82
2023/11/03 01:15:05;;;;;;;1.50;1.10;;;11.40;98.20;;;;;;4986523;28;20486;-82
2023/11/03 01:17:32;;;;;;;1.53;1.00;;;11.40;98.20;;;;;;4990051;28;20481;-82
2023/11/03 01:19:59;;;;;;;1.50;1.10;;;11.30;98.20;;;;;;4983418;28;20478;-81
2023/11/03 01:22:26;;;;;;;1.53;1.10;;;11.30;98.20;;;;;;4993986;28;20488;-83
2023/11/03 01:24:54;;;;;;;1.50;1.00;;;11.30;98.20;;;;;;4985262;28;20494;-83
2023/11/03 01:27:21;;;;;;;1.50;1.07;;;11.30;98.20;;;;;;4989305;28;20489;-83
2023/11/03 01:29:51;;;;;;;1.53;1.03;;;11.30;98.20;;;;;;4990842;28;20464;-81
2023/11/03 01:32:18;;;;;;;1.50;1.10;;;11.30;98.20;;;;;;4984113;28;20481;-82
2023/11/03 01:34:45;;;;;;;1.57;1.10;;;11.30;98.20;;;;;;4986786;28;20541;-83
2023/11/03 01:37:13;;;;;;;1.50;1.10;;;11.30;98.20;;;;;;4986838;28;20481;-81
2023/11/03 01:39:40;;;;;;;1.50;1.10;;;11.30;98.20;;;;;;4992542;28;20497;-82
2023/11/03 01:42:09;;;;;;;1.50;1.03;;;11.30;98.20;;;;;;4987807;28;20540;-82
2023/11/03 01:44:36;;;;;;;1.50;1.03;;;11.30;98.20;;;;;;4988610;28;20532;-81
2023/11/03 01:47:03;;;;;;;1.60;1.20;;;11.30;98.20;;;;;;4986784;28;20477;-83
2023/11/03 01:49:30;;;;;;;1.50;1.00;;;11.30;98.20;;;;;;4990023;28;20469;-83
2023/11/03 01:51:58;;;;;;;1.53;1.10;;;11.30;98.20;;;;;;4990658;28;20571;-83
2023/11/03 01:54:25;;;;;;;1.53;1.10;;;11.30;98.20;;;;;;4992422;28;20469;-83
2023/11/03 01:56:52;;;;;;;1.53;1.10;;;11.30;98.20;;;;;;4987067;28;20511;-82
2023/11/03 01:59:21;;;;;;;1.53;1.00;;;11.30;98.20;;;;;;4994852;28;20945;-82
2023/11/03 02:01:51;;;;;;;1.50;1.10;;;11.30;98.20;;;;;;4985001;28;20488;-83
2023/11/03 02:04:18;;;;;;;1.50;1.00;;;11.20;98.20;;;;;;4991465;28;20489;-83
2023/11/03 02:06:46;;;;;;;1.53;1.10;;;11.20;98.20;;;;;;4986176;28;20484;-82
2023/11/03 02:09:13;;;;;;;1.50;1.10;;;11.20;98.20;;;;;;4990989;28;20462;-81
2023/11/03 02:11:44;;;;;;;1.50;1.10;;;11.20;98.20;;;;;;4987447;28;20516;-82
2023/11/03 02:14:12;;;;;;;1.50;1.00;;;11.20;98.20;;;;;;4995397;28;20482;-83
2023/11/03 02:16:40;;;;;;;1.50;1.10;;;11.20;98.20;;;;;;4989218;28;20492;-83
2023/11/03 02:19:10;;;;;;;1.53;1.10;;;11.20;98.20;;;;;;5001487;28;20501;-84
2023/11/03 02:21:37;;;;;;;1.53;1.10;;;11.20;98.20;;;;;;4986757;28;20548;-82
2023/11/03 02:24:06;;;;;;;1.50;1.07;;;11.20;98.20;;;;;;4995642;28;20565;-83
2023/11/03 02:26:34;;;;;;;1.60;1.33;;;11.20;98.20;;;;;;4985301;28;20476;-83
2023/11/03 02:29:01;;;;;;;1.53;1.10;;;11.20;98.20;;;;;;4999507;28;20961;-84
2023/11/03 02:31:28;;;;;;;1.53;1.10;;;11.20;98.20;;;;;;4986802;28;20486;-82
2023/11/03 02:33:54;;;;;;;1.50;1.03;;;11.20;98.20;;;;;;5000774;28;20465;-84
2023/11/03 02:36:23;;;;;;;1.50;1.10;;;11.10;98.20;;;;;;4985493;28;20475;-83
2023/11/03 02:38:52;;;;;;;1.57;1.10;;;11.10;98.20;;;;;;4990580;28;20467;-83
2023/11/03 02:41:20;;;;;;;1.50;1.10;;;11.10;98.20;;;;;;4984369;28;20502;-82
2023/11/03 02:43:48;;;;;;;1.60;1.20;;;11.10;98.20;;;;;;5003060;28;20467;-84
2023/11/03 02:46:16;;;;;;;1.50;1.10;;;11.10;98.20;;;;;;5004083;23;20503;-80
2023/11/03 02:48:43;;;;;;;1.60;1.47;;;11.10;98.20;;;;;;5006691;28;20464;-80
2023/11/03 02:51:13;;;;;;;1.50;1.10;;;11.10;98.20;;;;;;4999517;28;20483;-79
2023/11/03 02:53:40;;;;;;;1.53;1.00;;;11.10;98.20;;;;;;5017057;28;20489;-79
2023/11/03 02:56:09;;;;;;;1.53;1.10;;;11.10;98.20;;;;;;5002336;28;20536;-80
2023/11/03 02:58:39;;;;;;;1.50;1.10;;;11.10;98.20;;;;;;5015755;28;20471;-79
2023/11/03 03:01:08;;;;;;;1.70;1.53;;;11.10;98.20;;;;;;4992528;28;20456;-80
2023/11/03 03:03:36;;;;;;;2.73;2.53;;;11.10;98.20;;;;;;5018930;28;20468;-80
2023/11/03 03:06:04;;;;;;;1.50;1.10;;;11.10;98.20;;;;;;4995049;28;20490;-79
2023/11/03 03:08:31;;;;;;;1.57;1.20;;;11.10;98.20;;;;;;5020983;28;20481;-79
2023/11/03 03:11:00;;;;;;;1.57;1.10;;;11.10;98.20;;;;;;4995359;28;20500;-80
2023/11/03 03:13:27;;;;;;;1.60;1.10;;;11.10;98.20;;;;;;5001850;28;20522;-80
2023/11/03 03:15:59;;;;;;;1.57;1.10;;;11.10;98.20;;;;;;4995951;28;20487;-79
2023/11/03 03:18:26;;;;;;;1.50;1.00;;;11.10;98.20;;;;;;5001759;28;20822;-79
2023/11/03 03:20:53;;;;;;;1.50;1.10;;;11.10;98.20;;;;;;4994473;28;20473;-80
2023/11/03 03:23:20;;;;;;;1.53;1.07;;;11.10;98.20;;;;;;4999180;28;20555;-79
2023/11/03 03:25:47;;;;;;;1.60;1.10;;;11.10;98.20;;;;;;4995076;28;20491;-80
2023/11/03 03:28:14;;;;;;;1.50;1.10;;;11.10;98.20;;;;;;4998892;28;20571;-79
2023/11/03 03:30:42;;;;;;;1.53;1.10;;;11.10;98.20;;;;;;5009734;28;20472;-80
2023/11/03 03:33:11;;;;;;;1.53;1.10;;;11.10;98.20;;;;;;5015139;28;20480;-81
2023/11/03 03:35:38;;;;;;;1.57;1.10;;;11.10;98.20;;;;;;5008145;28;20552;-80
2023/11/03 03:38:05;;;;;;;1.50;1.00;;;11.10;98.20;;;;;;4991934;28;20503;-79
2023/11/03 03:40:32;;;;;;;1.60;1.20;;;11.00;98.20;;;;;;5009103;28;20894;-80
2023/11/03 03:43:02;;;;;;;1.60;1.20;;;11.00;98.20;;;;;;5013106;28;20495;-80
2023/11/03 03:45:30;;;;;;;1.60;1.10;;;11.00;98.20;;;;;;5006533;28;20968;-79
2023/11/03 03:47:57;;;;;;;1.50;1.10;;;11.00;98.20;;;;;;5013624;28;20486;-79
2023/11/03 03:50:25;;;;;;;1.60;1.10;;;11.00;98.20;;;;;;5006007;28;20551;-79
2023/11/03 03:52:53;;;;;;;1.50;1.10;;;11.00;98.20;;;;;;4988387;28;20484;-79
2023/11/03 03:55:20;;;;;;;1.57;1.10;;;11.00;98.20;;;;;;5006523;28;20464;-79
2023/11/03 03:57:48;;;;;;;1.50;1.10;;;11.00;98.20;;;;;;5014634;28;21020;-80
2023/11/03 04:00:18;;;;;;;1.57;1.10;;;11.00;98.20;;;;;;5008599;28;20472;-78
2023/11/03 04:02:48;;;;;;;1.57;1.10;;;11.00;98.20;;;;;;5012497;28;20490;-79
2023/11/03 04:05:15;;;;;;;1.60;1.10;;;11.00;98.20;;;;;;5003586;28;20494;-80
2023/11/03 04:07:45;;;;;;;1.60;1.20;;;10.90;98.20;;;;;;5013654;28;21057;-79
2023/11/03 04:10:12;;;;;;;1.53;1.10;;;10.90;98.20;;;;;;5000446;28;20476;-80
2023/11/03 04:12:40;;;;;;;1.53;1.10;;;10.80;98.20;;;;;;5016461;28;20509;-79
2023/11/03 04:15:10;;;;;;;1.50;1.10;;;10.80;98.20;;;;;;5007646;28;21075;-79
2023/11/03 04:17:37;;;;;;;1.57;1.10;;;10.80;98.20;;;;;;5014722;28;20947;-80
2023/11/03 04:20:05;;;;;;;1.53;1.10;;;10.70;98.20;;;;;;5014217;28;20754;-81
2023/11/03 04:22:37;;;;;;;1.50;1.10;;;10.70;98.20;;;;;;5011341;28;20495;-79
2023/11/03 04:25:06;;;;;;;1.57;1.10;;;10.70;98.20;;;;;;5013665;28;20488;-79
2023/11/03 04:27:33;;;;;;;1.50;1.10;;;10.70;98.20;;;;;;5013474;28;20525;-80
2023/11/03 04:30:04;;;;;;;1.60;1.20;;;10.70;98.20;;;;;;5014287;28;20836;-79
2023/11/03 04:32:34;;;;;;;1.60;1.20;;;10.70;98.20;;;;;;5014801;28;21684;-79
2023/11/03 04:35:01;;;;;;;1.57;1.10;;;10.60;98.20;;;;;;5011675;28;20488;-78
2023/11/03 04:37:28;;;;;;;1.50;1.03;;;10.60;98.20;;;;;;5010707;28;20634;-80
2023/11/03 04:39:55;;;;;;;1.60;1.20;;;10.60;98.20;;;;;;5012753;28;20784;-79
2023/11/03 04:42:23;;;;;;;1.53;1.10;;;10.60;98.20;;;;;;5012278;28;20467;-78
2023/11/03 04:44:51;;;;;;;1.50;1.00;;;10.60;98.20;;;;;;5006307;28;20542;-79
2023/11/03 04:47:21;;;;;;;1.50;1.10;;;10.60;98.20;;;;;;5012917;28;20553;-78
2023/11/03 04:49:51;;;;;;;1.60;1.30;;;10.50;98.20;;;;;;5012742;28;20464;-79
2023/11/03 04:52:21;;;;;;;1.60;1.10;;;10.50;98.20;;;;;;5007717;28;20480;-79
2023/11/03 04:54:48;;;;;;;1.53;1.10;;;10.50;98.20;;;;;;5010038;28;20579;-79
2023/11/03 04:57:18;;;;;;;1.57;1.13;;;10.50;98.20;;;;;;5008674;28;20498;-78
2023/11/03 04:59:47;;;;;;;1.50;1.10;;;10.50;98.20;;;;;;5013009;28;20472;-78
2023/11/03 05:02:14;;;;;;;1.50;1.10;;;10.50;98.20;;;;;;5010863;28;20506;-80
2023/11/03 05:04:41;;;;;;;1.57;1.20;;;10.50;98.20;;;;;;5011672;28;20499;-79
2023/11/03 05:07:09;;;;;;;1.53;1.10;;;10.50;98.20;;;;;;5011407;28;20494;-79
2023/11/03 05:09:36;;;;;;;1.57;1.10;;;10.50;98.20;;;;;;5015147;28;20735;-79
2023/11/03 05:12:04;;;;;;;1.50;1.10;;;10.40;98.20;;;;;;5007507;28;20582;-79
2023/11/03 05:14:33;;;;;;;1.57;1.10;;;10.40;98.20;;;;;;5013959;28;21047;-80
2023/11/03 05:17:01;;;;;;;1.60;1.20;;;10.40;98.20;;;;;;5009919;28;20483;-80
2023/11/03 05:19:28;;;;;;;1.53;1.17;;;10.40;98.20;;;;;;5014645;28;20867;-81
2023/11/03 05:22:00;;;;;;;1.53;1.10;;;10.40;98.20;;;;;;5003337;28;21044;-80
2023/11/03 05:24:27;;;;;;;1.53;1.10;;;10.30;98.20;;;;;;5015204;28;20472;-79
2023/11/03 05:26:54;;;;;;;1.60;1.30;;;10.30;98.20;;;;;;5009512;28;20522;-80
2023/11/03 05:29:23;;;;;;;1.50;1.20;;;10.30;98.20;;;;;;5013838;28;20488;-80
2023/11/03 05:31:57;;;;;;;1.53;1.17;;;10.30;98.20;;;;;;5005186;28;20553;-81
2023/11/03 05:34:25;;;;;;;1.57;1.10;;;10.30;98.20;;;;;;5016385;28;20461;-81
2023/11/03 05:36:53;;;;;;;1.60;1.20;;;10.30;98.20;;;;;;5008408;28;20630;-80
2023/11/03 05:39:21;;;;;;;1.53;1.20;;;10.30;98.20;;;;;;5015609;28;20465;-80
2023/11/03 05:41:48;;;;;;;1.53;1.10;;;10.30;98.20;;;;;;5007501;28;20479;-80
2023/11/03 05:44:18;;;;;;;1.60;1.20;;;10.30;98.20;;;;;;5015732;28;20492;-82
2023/11/03 05:46:45;;;;;;;1.57;1.10;;;10.30;98.20;;;;;;5008411;28;20495;-80
2023/11/03 05:49:22;;;;;;;1.50;1.10;;;10.30;98.20;;;;;;5008039;28;20472;-80
2023/11/03 05:52:30;;;;;;;1.60;1.17;;;10.30;98.20;;;;;;5007836;28;21028;-81
2023/11/03 05:55:20;;;;;;;1.57;1.10;;;10.30;98.20;;;;;;4964742;28;20474;-81
2023/11/03 05:57:47;;;;;;;1.57;1.20;;;10.30;98.20;;;;;;5013765;28;20548;-79
2023/11/03 06:00:15;;;;;;;1.50;1.10;;;10.30;98.20;;;;;;5012138;28;20456;-81
2023/11/03 06:02:42;;;;;;;1.57;1.10;;;10.20;98.20;;;;;;5014681;28;20484;-81
2023/11/03 06:05:10;;;;;;;1.50;1.10;;;10.20;98.20;;;;;;5005935;28;20587;-81
2023/11/03 06:07:38;;;;;;;1.50;1.10;;;10.20;98.20;;;;;;4994760;28;20877;-80
2023/11/03 06:10:07;;;;;;;1.53;1.10;;;10.20;98.20;;;;;;5007064;28;20547;-80
2023/11/03 06:12:34;;;;;;;1.50;1.20;;;10.20;98.20;;;;;;4993335;28;20623;-77
2023/11/03 06:15:01;;;;;;;1.53;1.20;;;10.20;98.20;;;;;;5004879;28;20861;-78
2023/11/03 06:17:28;;;;;;;1.50;1.10;;;10.20;98.20;;;;;;4995905;28;20487;-80
2023/11/03 06:19:55;;;;;;;1.50;1.10;;;10.10;98.20;;;;;;5006988;28;20456;-79
2023/11/03 06:22:23;;;;;;;1.57;1.10;;;10.10;98.20;;;;;;4993348;28;20507;-78
2023/11/03 06:24:51;;;;;;;1.50;1.10;;;10.00;98.20;;;;;;5004186;28;20448;-79
2023/11/03 06:27:18;;;;;;;1.53;1.20;;;10.00;98.20;;;;;;4995145;28;20525;-79
2023/11/03 06:29:45;;;;;;;1.53;1.17;;;10.00;98.20;;;;;;5002585;28;20471;-78
2023/11/03 06:32:33;;;;;;;1.60;1.20;;;10.00;98.20;;;;;;4993887;28;20890;-80
2023/11/03 06:35:00;;;;;;;1.50;1.10;;;9.90;98.20;;;;;;5007603;28;20907;-79
2023/11/03 06:37:28;;;;;;;1.60;1.20;;;9.90;98.20;;;;;;4996659;28;20480;-80
2023/11/03 06:43:00;;;;;;;1.53;1.20;;;9.90;98.20;;;;;;4994213;28;20833;-81
2023/11/03 06:45:31;;;;;;;1.60;1.20;;;9.90;98.20;;;;;;5005066;28;20496;-80
2023/11/03 06:47:59;;;;;;;1.57;1.10;;;9.90;98.20;;;;;;4989817;28;20515;-80
2023/11/03 06:50:27;;;;;;;1.57;1.20;;;10.00;98.20;;;;;;5007765;28;20530;-80
2023/11/03 06:52:55;;;;;;;1.50;1.10;;;10.00;98.20;;;;;;4996561;28;20472;-79
2023/11/03 06:55:28;;;;;;;1.60;1.20;;;10.00;98.20;;;;;;5011025;28;20460;-80
2023/11/03 06:58:06;;;;;;;1.60;1.20;;;10.00;98.20;;;;;;4995438;28;20491;-80
2023/11/03 07:00:44;;;;;;;;;;;;;;;;;;;;;
2023/11/03 07:03:16;;;;;;;1.57;1.20;;;10.10;98.20;;;;;;4994633;28;20483;-80
2023/11/03 07:05:45;;;;;;;1.53;1.10;;;10.10;98.20;;;;;;5008571;28;20497;-80
2023/11/03 07:08:12;;;;;;;1.57;1.10;;;10.10;98.20;;;;;;4997403;28;20639;-79
2023/11/03 07:10:41;;;;;;;1.57;1.10;;;10.20;98.20;;;;;;5007485;28;20465;-79
2023/11/03 07:13:14;;;;;;;1.60;1.30;;;10.20;98.20;;;;;;4990646;28;20494;-80
2023/11/03 07:15:43;;;;;;;1.53;1.13;;;10.20;98.20;;;;;;5006812;28;20460;-80
2023/11/03 07:18:11;;;;;;;1.60;1.10;;;10.30;98.20;;;;;;4995180;28;20534;-80
2023/11/03 07:20:39;;;;;;;1.57;1.20;;;10.30;98.20;;;;;;5006985;28;20548;-80
2023/11/03 07:23:07;;;;;;;1.53;1.10;;;10.30;98.20;;;;;;4992013;28;20480;-80
2023/11/03 07:25:34;;;;;;;1.50;1.10;;;10.30;98.20;;;;;;5007516;28;20484;-79
2023/11/03 07:28:03;;;;;;;1.57;1.20;;;10.40;98.20;;;;;;4995005;28;20484;-80
2023/11/03 07:30:31;;;;;;;1.53;1.10;;;10.50;98.20;;;;;;5007331;28;20463;-79
2023/11/03 07:32:59;;;;;;;1.57;1.10;;;10.50;98.20;;;;;;4992509;28;20481;-79
2023/11/03 07:35:26;;;;;;;1.50;1.10;;;10.50;98.20;;;;;;5005692;28;20491;-79
2023/11/03 07:37:53;;;;;;;1.57;1.10;;;10.60;98.20;;;;;;4993000;28;20476;-80
2023/11/03 07:40:21;;;;;;;1.50;1.10;;;10.70;98.20;;;;;;5003463;28;20459;-79
2023/11/03 07:42:48;;;;;;;1.50;1.10;;;10.70;98.20;;;;;;4994633;28;20522;-79
2023/11/03 07:45:17;;;;;;;1.53;1.10;;;10.80;98.20;;;;;;5006831;28;20461;-79
2023/11/03 07:47:45;;;;;;;1.60;1.20;;;10.90;98.20;;;;;;4997095;28;21297;-80
2023/11/03 07:50:13;;;;;;;1.50;1.10;;;11.00;98.20;;;;;;5007367;28;20979;-79
2023/11/03 07:52:43;;;;;;;1.50;1.10;;;11.10;98.20;;;;;;5002988;28;20476;-79
2023/11/03 07:55:33;;;;;;;1.50;1.10;;;11.20;98.20;;;;;;5012078;28;20480;-79
2023/11/03 07:58:16;;;;;;;1.53;1.10;;;11.30;98.20;;;;;;4998919;28;20482;-79
2023/11/03 08:00:49;;;;;;;1.50;1.10;;;11.40;98.20;;;;;;5013457;28;20460;-79
2023/11/03 08:03:38;;;;;;;1.57;1.10;;;11.40;98.20;;;;;;5002992;28;20555;-79
2023/11/03 08:06:11;;;;;;;1.50;1.10;;;11.40;98.20;;;;;;5000050;28;20595;-79
2023/11/03 08:08:51;;;;;;;1.53;1.10;;;11.30;98.20;;;;;;5013520;28;20531;-79
2023/11/03 08:11:23;;;;;;;1.53;1.10;;;11.30;98.20;;;;;;5008598;28;21123;-81
2023/11/03 08:14:34;;;;;;;1.57;1.10;;;11.20;98.20;;;;;;5013466;28;20472;-79
2023/11/03 08:20:18;;;;;;;1.60;1.20;;;11.10;98.20;;;;;;5006800;22;20487;-80
2023/11/03 08:23:33;;;;;;;1.60;1.20;;;11.00;98.20;;;;;;4983744;28;20608;-80
2023/11/03 08:26:00;;;;;;;1.60;1.20;;;11.00;98.20;;;;;;4996976;28;20488;-80
2023/11/03 08:28:29;;;;;;;1.50;1.00;;;11.10;98.20;;;;;;5008624;28;20452;-80
2023/11/03 08:30:56;;;;;;;1.50;1.10;;;11.10;98.20;;;;;;4989172;28;20473;-79
2023/11/03 08:33:25;;;;;;;1.50;1.00;;;11.20;98.20;;;;;;5004535;28;20469;-80
2023/11/03 08:35:54;;;;;;;1.53;1.10;;;11.20;98.20;;;;;;4982579;28;20481;-80
2023/11/03 08:38:21;;;;;;;1.60;1.00;;;11.30;98.20;;;;;;5006585;28;20962;-81
2023/11/03 08:40:49;;;;;;;1.50;1.00;;;11.30;98.20;;;;;;4986914;28;20581;-81
2023/11/03 08:43:20;;;;;;;1.57;1.10;;;11.30;98.20;;;;;;5006719;28;20468;-81
2023/11/03 08:45:49;;;;;;;1.60;1.20;;;11.40;98.20;;;;;;4991414;28;20508;-79
2023/11/03 08:48:16;;;;;;;2.70;2.50;;;11.40;98.20;;;;;;5004972;28;20469;-79
2023/11/03 08:50:44;;;;;;;1.50;1.10;;;11.40;98.20;;;;;;4997236;28;20892;-80
2023/11/03 08:53:13;;;;;;;1.60;1.10;;;11.40;98.20;;;;;;4999343;28;20480;-79
2023/11/03 08:55:40;;;;;;;1.60;1.10;;;11.50;98.20;;;;;;4994942;28;20519;-79
2023/11/03 08:58:07;;;;;;;1.60;1.10;;;11.50;98.20;;;;;;4992542;28;20947;-80
2023/11/03 09:00:36;;;;;;;1.50;1.00;;;11.60;98.20;;;;;;4990419;28;20531;-79
2023/11/03 09:03:03;;;;;;;1.60;1.10;;;11.60;98.20;;;;;;4997015;28;20857;-78
2023/11/03 09:05:31;;;;;;;1.50;1.00;;;11.70;98.20;;;;;;4992665;28;20462;-79
2023/11/03 09:07:58;;;;;;;1.57;1.10;;;11.80;98.20;;;;;;4997853;28;20488;-80
2023/11/03 09:10:28;;;;;;;1.60;1.10;;;11.80;98.20;;;;;;4990771;28;20526;-80
2023/11/03 09:12:55;;;;;;;1.53;1.00;;;11.90;98.20;;;;;;4996459;28;20643;-79
2023/11/03 09:15:23;;;;;;;1.53;1.00;;;11.90;98.20;;;;;;4986010;28;20504;-78
2023/11/03 09:17:50;;;;;;;1.60;1.10;;;12.00;98.20;;;;;;4994532;28;20480;-80
2023/11/03 09:20:18;;;;;;;1.53;1.10;;;12.00;98.20;;;;;;4988972;28;20487;-80
2023/11/03 09:22:46;;;;;;;1.60;1.10;;;12.00;98.20;;;;;;4991984;28;20480;-81
2023/11/03 09:25:13;;;;;;;1.50;1.00;;;12.10;98.20;;;;;;4989715;28;20473;-80
2023/11/03 09:27:42;;;;;;;1.53;1.03;;;12.10;98.20;;;;;;4990767;28;20594;-80
2023/11/03 09:30:11;;;;;;;1.53;1.07;;;12.10;98.20;;;;;;4993172;28;20457;-80
2023/11/03 09:32:38;;;;;;;1.60;1.10;;;12.10;98.20;;;;;;4991664;28;20519;-80
2023/11/03 09:35:06;;;;;;;1.57;1.10;;;12.20;98.20;;;;;;4992647;28;20465;-80
2023/11/03 09:37:46;;;;;;;1.50;1.00;;;12.20;98.20;;;;;;5002508;28;20571;-82
2023/11/03 09:40:42;;;;;;;1.60;1.10;;;12.30;98.20;;;;;;4999683;28;20473;-79
2023/11/03 09:45:59;;;;;;;1.50;1.00;;;12.30;98.20;;;;;;4992156;28;20552;-82
2023/11/03 09:48:35;;;;;;;1.53;1.00;;;12.30;98.20;;;;;;5017130;28;20472;-82
2023/11/03 09:51:20;;;;;;;1.50;1.07;;;12.30;98.20;;;;;;4997098;28;20515;-82
2023/11/03 09:54:09;;;;;;;1.60;1.10;;;12.40;98.20;;;;;;5010224;28;20476;-81
2023/11/03 09:56:45;;;;;;;1.50;1.00;;;12.50;98.20;;;;;;4992923;28;21201;-81
2023/11/03 09:59:25;;;;;;;1.53;1.07;;;12.60;98.20;;;;;;5005350;28;20464;-82
2023/11/03 10:02:09;;;;;;;1.57;1.00;;;12.70;98.20;;;;;;4985187;28;20883;-84
2023/11/03 10:05:12;;;;;;;;;;;;;;;;;;;;;
2023/11/03 10:07:40;;;;;;;1.53;1.00;;;12.90;98.20;;;;;;5044691;22;20573;-81
2023/11/03 10:10:09;;;;;;;1.53;1.07;;;13.00;98.20;;;;;;4987057;28;20507;-82
2023/11/03 10:12:36;;;;;;;1.50;1.00;;;13.20;98.20;;;;;;4991176;28;21064;-81
2023/11/03 10:15:09;;;;;;;1.60;1.10;;;13.30;98.20;;;;;;4992713;28;20550;-81
2023/11/03 10:17:37;;;;;;;1.57;1.00;;;13.60;98.20;;;;;;4968812;28;20489;-82
2023/11/03 10:20:06;;;;;;;1.50;1.00;;;13.90;98.20;;;;;;4969215;28;20465;-83
2023/11/03 10:22:35;;;;;;;1.57;1.00;;;14.10;98.20;;;;;;4970709;28;20497;-83
2023/11/03 10:25:05;;;;;;;1.60;1.00;;;14.30;98.20;;;;;;4970800;28;20496;-81
2023/11/03 10:27:32;;;;;;;1.60;1.00;;;14.40;98.20;;;;;;4973271;28;20511;-82
2023/11/03 10:30:05;;;;;;;1.50;1.00;;;14.50;98.20;;;;;;4969200;28;20584;-81
2023/11/03 10:32:35;;;;;;;1.57;1.00;;;14.60;98.20;;;;;;4971127;28;20572;-82
2023/11/03 10:35:05;;;;;;;1.60;1.10;;;14.70;98.20;;;;;;4967403;28;20466;-83
2023/11/03 10:37:39;;;;;;;1.50;0.97;;;14.70;98.20;;;;;;4977443;28;20632;-83
2023/11/03 10:40:11;;;;;;;1.53;1.00;;;14.60;97.70;;;;;;4975531;28;20532;-82
2023/11/03 10:42:41;;;;;;;1.60;1.00;;;14.50;98.10;;;;;;4971799;28;20613;-81
2023/11/03 10:45:10;;;;;;;1.50;1.00;;;14.40;98.00;;;;;;4968456;28;20560;-80
2023/11/03 10:47:51;;;;;;;1.53;1.00;;;14.40;98.20;;;;;;4976096;28;20481;-82
2023/11/03 10:50:21;;;;;;;1.50;1.00;;;14.50;98.20;;;;;;4976121;28;20474;-84
2023/11/03 10:52:57;;;;;;;1.50;1.00;;;14.60;98.20;;;;;;4974622;28;21055;-80
2023/11/03 10:55:30;;;;;;;1.57;1.00;;;14.70;97.70;;;;;;4969695;28;20476;-81
2023/11/03 10:58:00;;;;;;;1.53;1.00;;;14.80;98.20;;;;;;4971994;28;20496;-81
2023/11/03 11:00:33;;;;;;;1.57;1.00;;;14.90;98.20;;;;;;4972415;28;20678;-80
2023/11/03 11:03:15;;;;;;;1.60;1.00;;;14.90;97.10;;;;;;4973176;28;20567;-80
2023/11/03 11:05:49;;;;;;;1.57;1.10;;;14.80;96.70;;;;;;4968748;28;20523;-81
2023/11/03 11:08:17;;;;;;;1.50;0.90;;;14.70;96.50;;;;;;4957131;28;20485;-80
2023/11/03 11:10:46;;;;;;;1.53;1.00;;;14.60;97.30;;;;;;4977958;28;20474;-83
2023/11/03 11:13:18;;;;;;;1.60;1.07;;;14.50;97.30;;;;;;4958018;28;20498;-82
2023/11/03 11:16:04;;;;;;;1.53;1.00;;;14.40;97.90;;;;;;4968471;28;20494;-83
2023/11/03 11:18:42;;;;;;;1.57;1.00;;;14.30;97.80;;;;;;4951509;28;20505;-81
2023/11/03 11:21:30;;;;;;;1.60;1.00;;;14.20;98.20;;;;;;4953179;28;20466;-80
2023/11/03 11:23:57;;;;;;;1.50;1.00;;;14.10;98.20;;;;;;4978928;28;21059;-79
2023/11/03 11:26:26;;;;;;;1.57;0.93;;;14.00;98.20;;;;;;4970887;28;20602;-80
2023/11/03 11:28:54;;;;;;;1.60;1.00;;;13.80;98.20;;;;;;4990550;28;20497;-80
2023/11/03 11:31:40;;;;;;;1.53;1.00;;;13.80;98.20;;;;;;4972906;28;20556;-81
2023/11/03 11:34:12;;;;;;;1.60;1.00;;;13.80;98.20;;;;;;4981224;28;20500;-80
2023/11/03 11:36:41;;;;;;;1.53;1.00;;;13.80;98.20;;;;;;4966400;28;20924;-80
2023/11/03 11:39:13;;;;;;;1.50;1.00;;;13.90;98.20;;;;;;4987091;28;20460;-81
2023/11/03 11:41:47;;;;;;;1.60;0.97;;;13.90;98.20;;;;;;4972457;28;20487;-80
2023/11/03 11:44:19;;;;;;;1.60;1.00;;;14.00;98.20;;;;;;4985309;28;20788;-82
2023/11/03 11:46:52;;;;;;;1.57;1.00;;;14.00;98.20;;;;;;4980786;28;20997;-82
2023/11/03 11:49:22;;;;;;;1.53;1.00;;;14.10;98.20;;;;;;4989543;28;20468;-81
2023/11/03 11:51:51;;;;;;;1.50;1.00;;;14.20;98.20;;;;;;4974214;28;20481;-81
2023/11/03 11:54:19;;;;;;;1.50;1.00;;;14.20;98.20;;;;;;4982102;28;20649;-81
2023/11/03 11:57:43;;;;;;;1.60;1.00;;;14.30;98.20;;;;;;4978772;28;21074;-82
2023/11/03 12:00:15;;;;;;;1.50;1.00;;;14.40;98.20;;;;;;4977587;28;20474;-81
2023/11/03 12:02:48;;;;;;;1.50;1.00;;;14.50;98.20;;;;;;4972593;28;20476;-83
2023/11/03 12:05:18;;;;;;;1.50;0.90;;;14.50;98.20;;;;;;4979264;28;20480;-81
2023/11/03 12:07:47;;;;;;;1.50;1.00;;;14.50;98.20;;;;;;4982319;28;20484;-79
2023/11/03 12:10:16;;;;;;;1.50;1.00;;;14.40;97.20;;;;;;4979874;28;20523;-82
2023/11/03 12:12:44;;;;;;;1.50;1.00;;;14.30;98.20;;;;;;4971914;28;20577;-81
2023/11/03 12:15:11;;;;;;;1.50;0.90;;;14.20;98.20;;;;;;4977142;28;20473;-81
2023/11/03 12:17:39;;;;;;;1.60;1.07;;;14.20;98.20;;;;;;4969328;28;20488;-82
2023/11/03 12:20:13;;;;;;;1.50;1.00;;;14.30;98.20;;;;;;4980853;28;20481;-81
2023/11/03 12:22:42;;;;;;;1.70;1.30;;;14.40;98.20;;;;;;4973577;28;20499;-82
2023/11/03 12:25:10;;;;;;;1.50;1.00;;;14.40;97.90;;;;;;4974640;28;20472;-81
2023/11/03 12:27:37;;;;;;;1.50;1.00;;;14.40;97.40;;;;;;4981571;28;21092;-82
2023/11/03 12:30:06;;;;;;;1.53;1.00;;;14.50;97.80;;;;;;4976644;28;20470;-81
2023/11/03 12:32:34;;;;;;;1.53;1.00;;;14.50;97.70;;;;;;4966613;28;20568;-81
2023/11/03 12:35:02;;;;;;;1.50;1.00;;;14.40;97.10;;;;;;4971683;28;20469;-81
2023/11/03 12:37:29;;;;;;;1.50;1.00;;;14.40;97.40;;;;;;4975247;28;20485;-80
2023/11/03 12:39:59;;;;;;;1.50;1.00;;;14.40;96.90;;;;;;4974941;28;20472;-82
2023/11/03 12:42:27;;;;;;;1.50;1.00;;;14.40;97.50;;;;;;4980230;28;20491;-82
2023/11/03 12:44:56;;;;;;;1.53;1.00;;;14.50;98.20;;;;;;4974112;28;21004;-82
2023/11/03 12:47:44;;;;;;;1.50;1.00;;;14.50;97.90;;;;;;4965082;28;20489;-82
2023/11/03 12:50:17;;;;;;;1.50;1.00;;;14.50;97.50;;;;;;4971193;28;20577;-81
2023/11/03 12:52:46;;;;;;;1.50;0.97;;;14.50;98.00;;;;;;4979074;28;20844;-81
2023/11/03 12:57:55;;;;;;;1.53;1.00;;;14.50;97.80;;;;;;5069583;23;20596;-81
2023/11/03 13:00:24;;;;;;;1.60;1.00;;;14.50;97.80;;;;;;4975157;28;21104;-80
2023/11/03 13:02:52;;;;;;;1.83;1.60;;;14.50;97.70;;;;;;4985449;28;20541;-81
2023/11/03 13:05:19;;;;;;;1.50;0.93;;;14.40;98.20;;;;;;4978706;28;20473;-82
2023/11/03 13:07:50;;;;;;;1.50;1.10;;;14.50;98.00;;;;;;4981265;28;20541;-79
2023/11/03 13:10:17;;;;;;;1.50;1.00;;;14.50;98.20;;;;;;4978222;28;20493;-81
2023/11/03 13:12:46;;;;;;;1.50;1.00;;;14.60;97.80;;;;;;4985869;28;20619;-83
2023/11/03 13:15:15;;;;;;;1.50;1.00;;;14.70;97.70;;;;;;4982451;28;20856;-82
2023/11/03 13:17:43;;;;;;;1.50;1.00;;;14.70;97.00;;;;;;4979085;28;20519;-81